Flight Track Log - Related Links

Times and Time Zones

All times are in EDT time to prevent confusion due to time zone crossing. See the 9Y-BGI flight status page for this flight to view local times or setup timezone preferences in your user account.

Time Position Orientation Groundspeed Altitude Reporting Facility
EDT Latitude Longitude Course Direction KTS MPH feet Rate Location/Type
Sun 12:48:00 PM 11.1706 -61.7013 328° Northwest  Level FlightAware Approximate
Sun 12:49:00 PM 11.2664 -61.7621 328° Northwest  Level FlightAware Approximate
Sun 12:50:00 PM 11.3622 -61.8230 328° Northwest  Level FlightAware Approximate
Sun 12:51:00 PM 11.4580 -61.8839 328° Northwest  Level FlightAware Approximate
Sun 12:52:00 PM 11.5538 -61.9448 328° Northwest  Level FlightAware Approximate
Sun 12:53:00 PM 11.6496 -62.0058 328° Northwest  Level FlightAware Approximate
Sun 12:54:00 PM 11.7453 -62.0668 328° Northwest  Level FlightAware Approximate
Sun 12:55:00 PM 11.8411 -62.1279 328° Northwest  Level FlightAware Approximate
Sun 12:56:00 PM 11.9368 -62.1890 328° Northwest  Level FlightAware Approximate
Sun 12:57:00 PM 12.0325 -62.2502 328° Northwest  Level FlightAware Approximate
Sun 12:58:00 PM 12.1282 -62.3114 328° Northwest  Level FlightAware Approximate
Sun 12:59:00 PM 12.2239 -62.3726 328° Northwest  Level FlightAware Approximate
Sun 01:00:00 PM 12.2997 -62.4582 328° Northwest  Level Estimated
Sun 01:01:00 PM 12.3981 -62.5149 331° Northwest  Level FlightAware Approximate
Sun 01:02:00 PM 12.4965 -62.5715 331° Northwest  Level FlightAware Approximate
Sun 01:03:00 PM 12.5948 -62.6282 331° Northwest  Level FlightAware Approximate
Sun 01:04:00 PM 12.6932 -62.6850 331° Northwest  Level FlightAware Approximate
Sun 01:05:00 PM 12.7899 -62.7408 331° Northwest  Level FlightAware Approximate
Sun 01:06:00 PM 12.8867 -62.7967 331° Northwest  Level FlightAware Approximate
Sun 01:07:00 PM 12.9602 -62.8820 329° Northwest  Level Estimated
Sun 01:08:00 PM 13.0558 -62.9400 329° Northwest  Level FlightAware Approximate
Sun 01:09:00 PM 13.1513 -62.9981 329° Northwest  Level FlightAware Approximate
Sun 01:10:00 PM 13.2468 -63.0563 329° Northwest  Level FlightAware Approximate
Sun 01:11:00 PM 13.3423 -63.1144 329° Northwest  Level FlightAware Approximate
Sun 01:12:00 PM 13.4378 -63.1726 329° Northwest  Level FlightAware Approximate
Sun 01:13:00 PM 13.5332 -63.2309 329° Northwest  Level FlightAware Approximate
Sun 01:14:00 PM 13.6287 -63.2892 329° Northwest  Level FlightAware Approximate
Sun 01:15:00 PM 13.7241 -63.3476 329° Northwest  Level FlightAware Approximate
Sun 01:16:00 PM 13.8196 -63.4060 329° Northwest  Level FlightAware Approximate
Sun 01:17:00 PM 13.9150 -63.4645 329° Northwest  Level FlightAware Approximate
Sun 01:18:00 PM 14.0104 -63.5230 329° Northwest  Level FlightAware Approximate
Sun 01:19:00 PM 14.1058 -63.5815 329° Northwest  Level FlightAware Approximate
Sun 01:20:00 PM 14.2011 -63.6401 329° Northwest  Level FlightAware Approximate
Sun 01:21:00 PM 14.2965 -63.6988 329° Northwest  Level FlightAware Approximate
Sun 01:22:00 PM 14.3918 -63.7575 329° Northwest  Level FlightAware Approximate
Sun 01:23:00 PM 14.4872 -63.8162 329° Northwest  Level FlightAware Approximate
Sun 01:24:00 PM 14.5825 -63.8750 329° Northwest  Level FlightAware Approximate
Sun 01:25:00 PM 14.6778 -63.9339 329° Northwest  Level FlightAware Approximate
Sun 01:26:00 PM 14.7731 -63.9928 329° Northwest  Level FlightAware Approximate
Sun 01:27:00 PM 14.8683 -64.0518 329° Northwest  Level FlightAware Approximate
Sun 01:28:00 PM 14.9636 -64.1108 329° Northwest  Level FlightAware Approximate
Sun 01:29:00 PM 15.0336 -64.2000 320° Northwest  Level Estimated
Sun 01:30:00 PM 15.1222 -64.2692 323° Northwest  Level FlightAware Approximate
Sun 01:31:00 PM 15.2108 -64.3386 323° Northwest  Level FlightAware Approximate
Sun 01:31:45 PM 15.1333 -64.2333 323° Northwest 430 495 36,000  Level San Juan Center
Sun 01:32:00 PM 15.2993 -64.4080 323° Northwest  Level FlightAware Approximate
Sun 01:32:46 PM 15.2333 -64.3167 321° Northwest 440 506 36,000  Level San Juan Center
Sun 01:33:00 PM 15.3879 -64.4774 323° Northwest  Level FlightAware Approximate
Sun 01:33:46 PM 15.3167 -64.3833 322° Northwest 440 506 36,000  Level San Juan Center
Sun 01:34:00 PM 15.4572 -64.5673 321° Northwest  Level Estimated
Sun 01:34:46 PM 15.4167 -64.4667 321° Northwest 440 506 36,000  Level San Juan Center
Sun 01:35:00 PM 15.5462 -64.6362 323° Northwest  Level FlightAware Approximate
Sun 01:35:47 PM 15.5167 -64.5500 321° Northwest 450 518 36,000  Level San Juan Center
Sun 01:36:00 PM 15.6352 -64.7052 323° Northwest  Level FlightAware Approximate
Sun 01:36:47 PM 15.6167 -64.6333 321° Northwest 450 518 36,000  Level San Juan Center
Sun 01:37:00 PM 15.7241 -64.7742 323° Northwest  Level FlightAware Approximate
Sun 01:37:47 PM 15.7167 -64.7167 321° Northwest 450 518 36,000  Level San Juan Center
Sun 01:38:48 PM 15.8000 -64.8000 316° Northwest 440 506 36,000  Level San Juan Center
Sun 01:39:48 PM 15.9000 -64.8833 321° Northwest 440 506 36,000  Level San Juan Center
Sun 01:40:48 PM 16.0000 -64.9833 316° Northwest 440 506 36,000  Level San Juan Center
Sun 01:41:48 PM 16.1000 -65.0667 321° Northwest 440 506 36,000 198 Level San Juan Center
Sun 01:42:49 PM 16.2000 -65.1500 321° Northwest 440 506 36,400 545 Climbing San Juan Center
Sun 01:43:49 PM 16.2833 -65.2167 322° Northwest 430 495 37,100 800 Climbing San Juan Center
Sun 01:44:49 PM 16.3833 -65.2833 327° Northwest 420 483 38,000 446 Climbing San Juan Center
Sun 01:45:50 PM 16.4667 -65.3500 323° Northwest 430 495 38,000  Level San Juan Center
Sun 01:46:50 PM 16.5667 -65.4333 321° Northwest 440 506 38,000  Level San Juan Center
Sun 01:47:50 PM 16.6667 -65.5167 321° Northwest 440 506 38,000  Level San Juan Center
Sun 01:48:51 PM 16.7500 -65.6000 316° Northwest 430 495 38,000  Level San Juan Center
Sun 01:49:51 PM 16.8500 -65.6833 321° Northwest 420 483 38,000  Level San Juan Center
Sun 01:50:51 PM 16.9333 -65.7500 323° Northwest 430 495 38,000  Level San Juan Center
Sun 01:51:51 PM 17.0333 -65.8333 321° Northwest 430 495 38,000  Level San Juan Center
Sun 01:52:52 PM 17.1167 -65.9167 316° Northwest 430 495 38,000  Level San Juan Center
Sun 01:53:52 PM 17.2167 -66.0000 321° Northwest 430 495 38,000  Level San Juan Center
Sun 01:54:52 PM 17.3000 -66.0833 316° Northwest 430 495 38,000  Level San Juan Center
Sun 01:55:53 PM 17.4000 -66.1667 322° Northwest 430 495 38,000  Level San Juan Center
Sun 01:56:53 PM 17.4833 -66.2333 323° Northwest 430 495 38,000  Level San Juan Center
Sun 01:57:53 PM 17.5833 -66.3167 322° Northwest 430 495 38,000  Level San Juan Center
Sun 01:58:54 PM 17.6833 -66.4000 322° Northwest 430 495 38,000  Level San Juan Center
Sun 01:59:54 PM 17.7667 -66.4833 316° Northwest 430 495 38,000  Level San Juan Center
Sun 02:00:54 PM 17.8667 -66.5667 322° Northwest 430 495 38,000  Level San Juan Center
Sun 02:01:54 PM 17.9500 -66.6500 316° Northwest 430 495 38,000  Level San Juan Center
Sun 02:02:55 PM 18.0500 -66.7167 328° Northwest 430 495 38,000  Level San Juan Center
Sun 02:03:55 PM 18.1667 -66.8167 321° Northwest 450 518 38,000  Level San Juan Center
Sun 02:04:55 PM 18.2333 -66.8833 316° Northwest 410 472 38,000  Level San Juan Center
Sun 02:05:56 PM 18.3333 -66.9667 322° Northwest 430 495 38,000  Level San Juan Center
Sun 02:06:56 PM 18.4167 -67.0500 317° Northwest 430 495 38,000  Level San Juan Center
Sun 02:07:56 PM 18.5167 -67.1333 322° Northwest 430 495 38,000  Level San Juan Center
Sun 02:08:56 PM 18.5833 -67.2333 305° West 420 483 38,000  Level San Juan Center
Sun 02:09:57 PM 18.6500 -67.3333 305° West 420 483 38,000  Level San Juan Center
Sun 02:10:57 PM 18.7333 -67.4167 317° Northwest 420 483 38,000  Level San Juan Center
Sun 02:11:57 PM 18.8000 -67.5167 305° West 420 483 38,000  Level San Juan Center
Sun 02:12:57 PM 18.8667 -67.6167 305° West 420 483 38,000  Level San Juan Center
Sun 02:13:58 PM 18.9500 -67.7167 311° West 420 483 38,000  Level San Juan Center
Sun 02:14:58 PM 19.0167 -67.8167 305° West 420 483 38,000  Level San Juan Center
Sun 02:15:58 PM 19.0833 -67.9000 310° West 420 483 38,000  Level San Juan Center
Sun 02:16:59 PM 19.1667 -68.0000 311° West 410 472 38,000  Level San Juan Center
Sun 02:17:59 PM 19.2333 -68.1000 305° West 410 472 38,000  Level San Juan Center
Sun 02:18:59 PM 19.3000 -68.2000 305° West 420 483 38,000  Level San Juan Center
Sun 02:20:00 PM 19.3833 -68.3000 311° West 420 483 38,000  Level San Juan Center
Sun 02:21:00 PM 19.4500 -68.3833 310° West 410 472 38,000  Level San Juan Center
Sun 02:22:46 PM 19.5847 -68.5883 305° West 445 512 38,000  Level Miami Center
Sun 02:23:46 PM 19.6564 -68.6850 308° West 432 497 38,000  Level Miami Center
Sun 02:24:46 PM 19.7258 -68.7797 308° West 421 484 38,000  Level Miami Center
Sun 02:25:46 PM 19.7933 -68.8769 306° West 421 484 38,000  Level Miami Center
Sun 02:26:46 PM 19.8583 -68.9722 306° West 414 476 38,000  Level Miami Center
Sun 02:27:46 PM 19.9236 -69.0678 306° West 407 468 38,000  Level Miami Center
Sun 02:28:46 PM 19.9844 -69.1656 304° West 407 468 38,000  Level Miami Center
Sun 02:29:46 PM 20.0517 -69.2586 308° West 407 468 38,000  Level Miami Center
Sun 02:30:46 PM 20.1144 -69.3567 304° West 407 468 38,000  Level Miami Center
Sun 02:31:46 PM 20.1814 -69.4500 307° West 407 468 38,000  Level Miami Center
Sun 02:32:46 PM 20.2425 -69.5483 304° West 407 468 38,000  Level Miami Center
Sun 02:33:46 PM 20.3072 -69.6442 306° West 407 468 38,000  Level Miami Center
Sun 02:34:46 PM 20.3739 -69.7378 307° West 407 468 38,000  Level Miami Center
Sun 02:35:46 PM 20.4389 -69.8361 305° West 407 468 38,000  Level Miami Center
Sun 02:36:46 PM 20.5017 -69.9347 304° West 407 468 38,000  Level Miami Center
Sun 02:37:46 PM 20.5661 -70.0286 306° West 407 468 38,000  Level Miami Center
Sun 02:38:46 PM 20.6308 -70.1228 306° West 407 468 38,000  Level Miami Center
Sun 02:39:46 PM 20.6956 -70.2239 304° West 407 468 38,000  Level Miami Center
Sun 02:40:46 PM 20.7578 -70.3183 305° West 407 468 38,000  Level Miami Center
Sun 02:41:46 PM 20.8244 -70.4147 307° West 407 468 38,000  Level Miami Center
Sun 02:42:46 PM 20.8869 -70.5117 305° West 407 468 38,000  Level Miami Center
Sun 02:43:46 PM 20.9489 -70.6042 306° West 407 468 38,000  Level Miami Center
Sun 02:44:46 PM 21.0114 -70.7011 305° West 402 463 38,000  Level Miami Center
Sun 02:45:46 PM 21.0711 -70.7917 305° West 390 449 38,000  Level Miami Center
Sun 02:46:46 PM 21.1333 -70.8867 305° West 390 449 38,000  Level Miami Center
Sun 02:47:46 PM 21.1953 -70.9819 305° West 390 449 38,000  Level Miami Center
Sun 02:48:46 PM 21.2486 -71.0664 304° West 390 449 38,000  Level Miami Center
Sun 02:49:46 PM 21.3128 -71.1681 304° West 390 449 38,000  Level Miami Center
Sun 02:50:46 PM 21.3769 -71.2678 305° West 395 455 38,000  Level Miami Center
Sun 02:51:46 PM 21.4431 -71.3653 306° West 405 466 38,000  Level Miami Center
Sun 02:52:46 PM 21.5047 -71.4586 305° West 405 466 38,000  Level Miami Center
Sun 02:53:46 PM 21.5686 -71.5564 305° West 400 460 38,000  Level Miami Center
Sun 02:54:46 PM 21.6303 -71.6478 306° West 395 455 38,000  Level Miami Center
Sun 02:55:46 PM 21.6897 -71.7436 304° West 395 455 38,000  Level Miami Center
Sun 02:56:46 PM 21.7514 -71.8394 305° West 395 455 38,000  Level Miami Center
Sun 02:57:46 PM 21.8131 -71.9378 304° West 395 455 38,000  Level Miami Center
Sun 02:58:46 PM 21.8722 -72.0294 305° West 389 448 38,000  Level Miami Center
Sun 02:59:46 PM 21.9339 -72.1256 305° West 389 448 38,000  Level Miami Center
Sun 03:00:46 PM 21.9931 -72.2219 304° West 389 448 38,000  Level Miami Center
Sun 03:01:46 PM 22.0564 -72.3136 307° West 389 448 38,000  Level Miami Center
Sun 03:02:46 PM 22.1181 -72.4192 302° West 384 442 38,000  Level Miami Center
Sun 03:03:46 PM 22.1792 -72.5156 304° West 384 442 38,000  Level Miami Center
Sun 03:04:46 PM 22.2403 -72.6122 304° West 384 442 38,000  Level Miami Center
Sun 03:05:46 PM 22.3036 -72.7111 305° West 389 448 38,000  Level Miami Center
Sun 03:06:46 PM 22.3647 -72.8036 306° West 389 448 38,000  Level Miami Center
Sun 03:07:46 PM 22.4214 -72.9006 302° West 389 448 38,000  Level Miami Center
Sun 03:08:46 PM 22.4844 -72.9953 306° West 384 442 38,000  Level Miami Center
Sun 03:09:46 PM 22.5433 -73.0925 303° West 384 442 38,000  Level Miami Center
Sun 03:10:46 PM 22.5978 -73.1853 302° West 378 435 38,000  Level Miami Center
Sun 03:11:46 PM 22.6583 -73.2781 305° West 383 441 38,000  Level Miami Center
Sun 03:12:46 PM 22.7172 -73.3756 303° West 383 441 38,000  Level Miami Center
Sun 03:13:46 PM 22.7797 -73.4683 306° West 383 441 38,000  Level Miami Center
Sun 03:14:46 PM 22.8383 -73.5683 302° West 383 441 38,000  Level Miami Center
Sun 03:16:00 PM 22.9132 -73.6903 304° West  Level FlightAware Approximate
Sun 03:16:46 PM 22.9553 -73.7617 304° West 383 441 38,000  Level Miami Center
Sun 03:17:46 PM 23.0158 -73.8572 305° West 383 441 38,000  Level Miami Center
Sun 03:18:46 PM 23.0719 -73.9531 302° West 383 441 38,000  Level Miami Center
Sun 03:19:46 PM 23.1344 -74.0508 305° West 383 441 38,000  Level Miami Center
Sun 03:20:46 PM 23.1947 -74.1489 304° West 383 441 38,000  Level Miami Center
Sun 03:21:46 PM 23.2528 -74.2428 304° West 383 441 38,000  Level Miami Center
Sun 03:22:46 PM 23.3108 -74.3411 303° West 383 441 38,000  Level Miami Center
Sun 03:23:46 PM 23.3708 -74.4372 304° West 383 441 38,000  Level Miami Center
Sun 03:24:46 PM 23.4289 -74.5311 304° West 383 441 38,000  Level Miami Center
Sun 03:25:46 PM 23.4889 -74.6275 304° West 383 441 38,000  Level Miami Center
Sun 03:26:46 PM 23.5486 -74.7217 305° West 383 441 38,000  Level Miami Center
Sun 03:27:46 PM 23.6064 -74.8228 302° West 383 441 38,000  Level Miami Center
Sun 03:28:46 PM 23.6642 -74.9192 303° West 383 441 38,000  Level Miami Center
Sun 03:29:46 PM 23.7239 -75.0136 305° West 383 441 38,000  Level Miami Center
Sun 03:30:46 PM 23.7814 -75.1106 303° West 383 441 38,000  Level Miami Center
Sun 03:31:46 PM 23.8411 -75.2050 305° West 383 441 38,000  Level Miami Center
Sun 03:32:46 PM 23.8986 -75.3019 303° West 383 441 38,000  Level Miami Center
Sun 03:33:46 PM 23.9581 -75.4014 303° West 383 441 38,000  Level Miami Center
Sun 03:34:46 PM 24.0153 -75.4983 303° West 383 441 38,000  Level Miami Center
Sun 03:35:46 PM 24.0728 -75.5958 303° West 383 441 38,000  Level Miami Center
Sun 03:36:46 PM 24.1319 -75.6908 304° West 383 441 38,000  Level Miami Center
Sun 03:38:00 PM 24.2049 -75.8154 303° West  Level FlightAware Approximate
Sun 03:38:46 PM 24.2442 -75.8881 303° West 383 441 38,000  Level Miami Center
Sun 03:39:46 PM 24.3033 -75.9856 304° West 383 441 38,000  Level Miami Center
Sun 03:40:46 PM 24.3603 -76.0856 302° West 383 441 38,000  Level Miami Center
Sun 03:41:46 PM 24.4214 -76.1833 304° West 383 441 38,000  Level Miami Center
Sun 03:42:46 PM 24.4761 -76.2811 302° West 383 441 38,000  Level Miami Center
Sun 03:43:46 PM 24.5225 -76.3631 302° West 374 430 38,000  Level Miami Center
Sun 03:44:46 PM 24.5811 -76.4611 303° West 374 430 38,000  Level Miami Center
Sun 03:45:46 PM 24.6378 -76.5594 302° West 374 430 38,000  Level Miami Center
Sun 03:46:46 PM 24.6944 -76.6575 302° West 374 430 38,000  Level Miami Center
Sun 03:47:46 PM 24.7531 -76.7558 303° West 379 436 38,000  Level Miami Center
Sun 03:48:46 PM 24.8097 -76.8519 303° West 379 436 38,000 -250 Level Miami Center
Sun 03:49:46 PM 24.8681 -76.9506 303° West 379 436 37,500 -700 Descending Miami Center
Sun 03:50:46 PM 24.9222 -77.0489 301° West 385 443 36,600 -500 Descending Miami Center
Sun 03:52:00 PM 24.9934 -77.1752 302° West  Level FlightAware Approximate
Sun 03:52:46 PM 25.0389 -77.2464 302° West 385 443 36,000  Level Miami Center
Sun 03:53:46 PM 25.1014 -77.3408 306° West 385 443 36,000  Level Miami Center
Sun 03:54:46 PM 25.1594 -77.4511 300° West 401 461 36,000  Level Miami Center
Sun 03:55:46 PM 25.2239 -77.5664 302° West 409 471 36,000  Level Miami Center
Sun 03:56:46 PM 25.2797 -77.6656 302° West 404 465 36,000  Level Miami Center
Sun 03:57:46 PM 25.3378 -77.7694 302° West 399 459 36,000  Level Miami Center
Sun 03:58:46 PM 25.3933 -77.8711 301° West 399 459 36,000 -200 Level Miami Center
Sun 03:59:46 PM 25.4511 -77.9706 303° West 394 453 35,600 -800 Descending Miami Center
Sun 04:00:46 PM 25.5111 -78.0769 302° West 394 453 34,400 -1,800 Descending Miami Center
Sun 04:01:46 PM 25.5581 -78.1833 296° West 394 453 32,000 -2,200 Descending Miami Center
Sun 04:02:46 PM 25.5781 -78.2942 281° West 373 429 30,000 -2,450 Descending Miami Center
Sun 04:03:46 PM 25.6000 -78.4050 290° West 373 429 27,100 -2,450 Descending Miami Center
Sun 04:04:00 PM 25.6236 -78.4350 290° West  Level FlightAware Approximate
Sun 04:04:46 PM 25.6281 -78.5114 286° West 373 429 25,100  Level Miami Center
Sun 04:05:46 PM 25.6475 -78.6222 281° West 373 429 23,100 -1,950 Descending Miami Center
Sun 04:06:46 PM 25.6694 -78.7217 284° West 359 413 21,200 -1,850 Descending Miami Center
Sun 04:07:46 PM 25.6889 -78.8211 282° West 345 397 19,400 -1,850 Descending Miami Center
Sun 04:08:46 PM 25.7064 -78.9183 281° West 335 386 17,500 -1,700 Descending Miami Center
Sun 04:09:46 PM 25.7261 -78.9994 285° West 319 367 16,000 -1,600 Descending Miami Center
Sun 04:10:46 PM 25.7436 -79.0919 282° West 309 356 14,300 -1,650 Descending Miami Center
Sun 04:11:46 PM 25.7631 -79.1800 284° West 304 350 12,700 -1,700 Descending Miami Center
Sun 04:12:46 PM 25.7761 -79.2772 279° West 294 338 10,900 -1,450 Descending Miami Center
Sun 04:13:46 PM 25.7936 -79.3583 283° West 286 329 9,800 -1,300 Descending Miami Center
Sun 04:14:46 PM 25.8111 -79.4417 283° West 276 318 8,300 -1,477 Descending Miami Center
Sun 04:15:56 PM 25.8281 -79.5414 281° West 271 312 6,600 -1,350 Descending Miami Center
Sun 04:16:46 PM 25.8458 -79.5994 289° West 276 318 5,600 -1,433 Descending Miami Center
Sun 04:17:03 PM 25.8472 -79.6319 273° West 263 303 5,000 -1,455 Descending Miami Center
Sun 04:17:52 PM 25.8775 -79.6856 302° West 256 295 4,000 -1,081 Descending Miami Center
Sun 04:18:54 PM 25.9222 -79.7444 310° West 253 291 3,000 -579 Descending Miami Center
Sun 04:19:46 PM 25.9761 -79.7664 340° North 240 276 2,900  Descending Miami Center
Sun 04:20:01 PM 25.9969 -79.7694 352° North 228 262 3,000  Climbing Miami Center
Sun 04:20:46 PM 26.0322 -79.7886 334° Northwest 225 259 2,900 -57 Descending Miami Center
Sun 04:21:46 PM 26.0711 -79.8244 320° Northwest 208 239 2,900 72 Level Miami Center
Sun 04:22:09 PM 26.0725 -79.8544 273° West 172 198 3,000  Climbing Miami Center
Sun 04:22:46 PM 26.0783 -79.8800 284° West 178 205 2,900  Descending Miami Center
Sun 04:23:04 PM 26.0736 -79.9053 258° West 174 200 3,000 100 Climbing Miami Center
Sun 04:23:46 PM 26.0753 -79.9331 274° West 171 197 3,000  Level Miami Center
Sun 04:24:05 PM 26.0747 -79.9586 269° West 171 197 3,000 -400 Level Miami Center
Sun 04:24:46 PM 26.0761 -79.9864 273° West 171 197 2,600 -706 Descending Miami Center
Sun 04:25:13 PM 26.0714 -80.0139 259° West 150 173 2,200 -818 Descending Miami Center
Sun 04:26:14 PM 26.0744 -80.0628 274° West 152 175 1,400 -776 Descending Miami Center
Sun 04:27:09 PM 26.0736 -80.1042 269° West 149 171 700 -764 Descending Miami Center
Sun 04:29:00 PM 26.0726 -80.1527 246° West  Level Estimated
Sun 04:36:00 PM 26.0667 -80.1500 77° East  Level FlightAware Approximate

Login

Don't have an account? Register now (free) for customized features, flight alerts, and more!